Terminal Aerodrome Forecast
Issued by NWS

Home | Current Version | Previous Version | Text Only | Print | Product List | Glossary On
Versions: 1 2 3 4 5 6 7 8 9 10 11 12 13
000
FTUS41 KPHI 290700 AAA
TAFMIV
TAF AMD
KMIV 290720Z 2907/3006 31007KT P6SM -RA SCT030 OVC060
     FM291200 35007KT P6SM SCT040 BKN100
     FM291600 36005KT P6SM SCT050 BKN150
     FM300200 02005KT P6SM OVC100=

USA.gov is the U.S. government's official web portal to all federal, state and local government web resources and services.